Time;durP1;ratioP1;P1;durP2;ratioP2;P2;SDS_P1;SDS_P2;PMS_P1;PMS_P2;Temp;Humidity;BMP_temperature;BMP_pressure;BME280_temperature;BME280_humidity;BME280_pressure;Samples;Min_cycle;Max_cycle;Signal;HPM_P1;HPM_P2
2021/07/05 00:00:24;;;;;;;;;;;;;;;22.51;61.70;99617.38;2062445;28;19968;-62
2021/07/05 00:01:24;;;;;;;;;;;;;;;22.51;61.68;99614.63;2061612;28;19914;-61
2021/07/05 00:02:24;;;;;;;;;;;;;;;22.50;61.56;99618.44;2064713;28;19924;-61
2021/07/05 00:03:25;;;;;;;;;;;;;;;22.49;61.82;99614.00;2062112;28;20008;-61
2021/07/05 00:04:25;;;;;;;;;;;;;;;22.51;61.52;99622.88;2063599;28;20588;-61
2021/07/05 00:05:25;;;;;;;;;;;;;;;22.51;61.65;99616.53;2062864;28;20005;-62
2021/07/05 00:06:25;;;;;;;;;;;;;;;22.51;61.63;99617.38;2062396;28;20240;-61
2021/07/05 00:07:26;;;;;;;;;;;;;;;22.50;61.52;99610.19;2063593;28;20000;-61
2021/07/05 00:08:26;;;;;;;;;;;;;;;22.50;61.60;99612.94;2062901;28;19948;-62
2021/07/05 00:09:26;;;;;;;;;;;;;;;22.50;61.72;99610.19;2071320;28;19929;-61
2021/07/05 00:10:27;;;;;;;;;;;;;;;22.50;61.48;99609.34;2061700;28;19909;-62
2021/07/05 00:11:27;;;;;;;;;;;;;;;22.50;61.55;99610.19;2063640;28;19902;-61
2021/07/05 00:12:28;;;;;;;;;;;;;;;22.50;61.74;99607.44;2063515;28;19913;-61
2021/07/05 00:13:28;;;;;;;;;;;;;;;22.50;61.69;99604.72;2062151;28;19910;-61
2021/07/05 00:14:29;;;;;;;;;;;;;;;22.50;61.62;99607.44;2063386;28;19913;-61
2021/07/05 00:15:31;;;;;;;;;;;;;;;22.50;61.49;99604.72;2062408;28;19913;-61
2021/07/05 00:16:31;;;;;;;;;;;;;;;22.49;61.69;99603.00;2060604;28;20582;-61
2021/07/05 00:17:31;;;;;;;;;;;;;;;22.49;61.47;99597.50;2065082;28;20046;-61
2021/07/05 00:18:32;;;;;;;;;;;;;;;22.50;61.46;99603.84;2060308;28;19918;-61
2021/07/05 00:19:32;;;;;;;;;;;;;;;22.50;61.54;99603.84;2056329;28;19913;-61
2021/07/05 00:20:36;;;;;;;;;;;;;;;22.50;61.48;99604.72;2062045;28;19963;-61
2021/07/05 00:21:37;;;;;;;;;;;;;;;22.50;61.44;99604.72;2065965;28;19955;-61
2021/07/05 00:22:37;;;;;;;;;;;;;;;22.50;61.47;99598.38;2064646;28;19901;-62
2021/07/05 00:23:37;;;;;;;;;;;;;;;22.50;61.44;99599.22;2059308;28;20012;-61
2021/07/05 00:24:38;;;;;;;;;;;;;;;22.49;61.55;99589.28;2059870;28;19924;-61
2021/07/05 00:25:38;;;;;;;;;;;;;;;22.50;61.45;99592.88;2063565;28;19948;-61
2021/07/05 00:26:38;;;;;;;;;;;;;;;22.49;61.66;99592.03;2057696;28;19957;-61
2021/07/05 00:27:39;;;;;;;;;;;;;;;22.50;61.46;99588.22;2059640;28;19909;-62
2021/07/05 00:28:39;;;;;;;;;;;;;;;22.49;61.54;99592.03;2062516;28;19933;-61
2021/07/05 00:29:39;;;;;;;;;;;;;;;22.49;61.57;99586.53;2059731;28;19956;-61
2021/07/05 00:30:40;;;;;;;;;;;;;;;22.49;61.48;99592.03;2056774;28;20415;-61
2021/07/05 00:31:40;;;;;;;;;;;;;;;22.48;61.62;99585.66;2058673;28;19920;-61
2021/07/05 00:32:41;;;;;;;;;;;;;;;22.48;61.50;99590.28;2063199;28;19917;-60
2021/07/05 00:33:42;;;;;;;;;;;;;;;22.47;61.51;99588.59;2062005;28;19996;-60
2021/07/05 00:34:42;;;;;;;;;;;;;;;22.48;61.56;99584.81;2062308;28;19959;-61
2021/07/05 00:35:42;;;;;;;;;;;;;;;22.48;61.74;99582.91;2063240;28;19937;-60
2021/07/05 00:36:43;;;;;;;;;;;;;;;22.48;61.72;99580.16;2061408;28;19949;-60
2021/07/05 00:37:44;;;;;;;;;;;;;;;22.47;61.54;99585.84;2063551;28;19905;-60
2021/07/05 00:38:44;;;;;;;;;;;;;;;22.47;61.56;99583.09;2061862;28;20004;-60
2021/07/05 00:39:44;;;;;;;;;;;;;;;22.48;61.56;99590.28;2061592;28;19967;-60
2021/07/05 00:40:45;;;;;;;;;;;;;;;22.47;61.65;99572.13;2063295;28;20033;-60
2021/07/05 00:41:45;;;;;;;;;;;;;;;22.48;61.51;99584.81;2061374;28;20628;-60
2021/07/05 00:42:46;;;;;;;;;;;;;;;22.47;61.52;99581.22;2063597;28;19913;-60
2021/07/05 00:43:46;;;;;;;;;;;;;;;22.48;61.43;99576.56;2062252;28;19914;-60
2021/07/05 00:44:47;;;;;;;;;;;;;;;22.48;61.52;99576.56;2062928;28;19987;-60
2021/07/05 00:45:47;;;;;;;;;;;;;;;22.48;61.73;99584.81;2063332;28;19913;-60
2021/07/05 00:46:48;;;;;;;;;;;;;;;22.49;61.53;99586.53;2060848;28;20269;-61
2021/07/05 00:47:48;;;;;;;;;;;;;;;22.48;61.66;99590.28;2063747;28;20365;-61
2021/07/05 00:48:48;;;;;;;;;;;;;;;22.49;61.45;99589.28;2062480;28;20264;-60
2021/07/05 00:49:49;;;;;;;;;;;;;;;22.48;61.46;99587.56;2063008;28;19906;-61
2021/07/05 00:50:49;;;;;;;;;;;;;;;22.48;61.46;99595.78;2060505;28;19920;-61
2021/07/05 00:51:49;;;;;;;;;;;;;;;22.48;61.39;99591.16;2058799;28;20106;-61
2021/07/05 00:52:52;;;;;;;;;;;;;;;22.48;61.44;99590.28;2059334;28;20297;-61
2021/07/05 00:53:54;;;;;;;;;;;;;;;22.47;61.59;99592.19;2064429;28;19910;-61
2021/07/05 00:54:55;;;;;;;;;;;;;;;22.48;61.36;99590.28;2064146;28;19917;-61
2021/07/05 00:55:55;;;;;;;;;;;;;;;22.48;61.64;99587.56;2056384;28;19937;-61
2021/07/05 00:56:56;;;;;;;;;;;;;;;22.49;61.61;99581.03;2061940;28;20491;-61
2021/07/05 00:57:56;;;;;;;;;;;;;;;22.49;61.27;99586.53;2058031;28;19924;-61
2021/07/05 00:58:58;;;;;;;;;;;;;;;22.48;61.50;99587.56;2063013;28;20371;-61
2021/07/05 00:59:58;;;;;;;;;;;;;;;22.48;61.59;99577.41;2058436;28;19905;-62
2021/07/05 01:00:59;;;;;;;;;;;;;;;22.48;61.60;99584.81;2068969;28;19913;-61
2021/07/05 01:01:59;;;;;;;;;;;;;;;22.47;61.44;99586.69;2061038;28;19917;-61
2021/07/05 01:02:59;;;;;;;;;;;;;;;22.47;61.73;99577.63;2059127;28;19913;-61
2021/07/05 01:04:00;;;;;;;;;;;;;;;22.47;61.66;99575.72;2062972;28;19917;-61
2021/07/05 01:05:00;;;;;;;;;;;;;;;22.48;61.50;99582.06;2052437;28;19961;-61
2021/07/05 01:06:01;;;;;;;;;;;;;;;22.47;61.40;99578.47;2061429;28;20099;-60
2021/07/05 01:07:01;;;;;;;;;;;;;;;22.48;61.57;99591.16;2060725;28;20502;-61
2021/07/05 01:08:02;;;;;;;;;;;;;;;22.48;61.55;99582.91;2059184;28;20054;-61
2021/07/05 01:09:03;;;;;;;;;;;;;;;22.47;61.61;99583.09;2062431;28;19963;-61
2021/07/05 01:10:04;;;;;;;;;;;;;;;22.47;61.44;99578.47;2062496;28;20400;-61
2021/07/05 01:11:05;;;;;;;;;;;;;;;22.48;61.56;99584.81;2061018;28;19902;-61
2021/07/05 01:12:05;;;;;;;;;;;;;;;22.47;61.50;99583.97;2059161;28;19920;-61
2021/07/05 01:13:05;;;;;;;;;;;;;;;22.47;61.51;99583.09;2061276;28;19905;-61
2021/07/05 01:14:06;;;;;;;;;;;;;;;22.48;61.54;99584.81;2060327;28;20355;-61
2021/07/05 01:15:10;;;;;;;;;;;;;;;22.49;61.47;99589.28;2062217;28;19905;-61
2021/07/05 01:16:11;;;;;;;;;;;;;;;22.48;61.42;99591.16;2062760;28;19914;-61
2021/07/05 01:17:13;;;;;;;;;;;;;;;22.48;61.46;99585.66;2062045;28;19949;-60
2021/07/05 01:18:13;;;;;;;;;;;;;;;22.49;61.49;99583.78;2063788;28;19909;-61
2021/07/05 01:19:14;;;;;;;;;;;;;;;22.49;61.54;99586.53;2062820;28;19914;-60
2021/07/05 01:20:16;;;;;;;;;;;;;;;22.49;61.46;99592.03;2062146;28;19916;-61
2021/07/05 01:21:16;;;;;;;;;;;;;;;22.47;61.57;99583.97;2062522;28;19920;-61
2021/07/05 01:22:17;;;;;;;;;;;;;;;22.48;61.34;99590.28;2061158;28;19913;-61
2021/07/05 01:23:18;;;;;;;;;;;;;;;22.47;61.46;99588.59;2063214;28;20014;-61
2021/07/05 01:24:18;;;;;;;;;;;;;;;22.47;61.38;99588.59;2060955;28;19918;-62
2021/07/05 01:25:20;;;;;;;;;;;;;;;22.48;61.41;99591.16;2063369;28;19914;-61
2021/07/05 01:26:21;;;;;;;;;;;;;;;22.48;61.56;99587.56;2057002;28;19913;-61
2021/07/05 01:27:23;;;;;;;;;;;;;;;22.47;61.30;99585.84;2055993;28;19916;-60
2021/07/05 01:28:24;;;;;;;;;;;;;;;22.47;61.32;99577.63;2062317;28;19910;-61
2021/07/05 01:29:24;;;;;;;;;;;;;;;22.48;61.55;99579.31;2061186;28;19920;-61
2021/07/05 01:30:25;;;;;;;;;;;;;;;22.47;61.37;99574.88;2063183;28;19914;-61
2021/07/05 01:31:25;;;;;;;;;;;;;;;22.47;61.52;99572.13;2055214;28;19980;-61
2021/07/05 01:32:25;;;;;;;;;;;;;;;22.47;61.53;99574.88;2055672;28;19913;-60
2021/07/05 01:33:26;;;;;;;;;;;;;;;22.46;61.59;99576.78;2054304;28;20367;-61
2021/07/05 01:34:26;;;;;;;;;;;;;;;22.47;61.41;99577.63;2052535;28;19948;-61
2021/07/05 01:35:27;;;;;;;;;;;;;;;22.46;61.43;99573.16;2059876;28;20085;-60
2021/07/05 01:36:28;;;;;;;;;;;;;;;22.46;61.57;99565.78;2053169;28;19910;-61
2021/07/05 01:37:28;;;;;;;;;;;;;;;22.46;61.54;99571.28;2055080;28;19980;-61
2021/07/05 01:38:28;;;;;;;;;;;;;;;22.46;61.59;99573.16;2059776;28;20383;-61
2021/07/05 01:39:29;;;;;;;;;;;;;;;22.46;61.60;99567.66;2061689;28;20060;-61
2021/07/05 01:40:29;;;;;;;;;;;;;;;22.46;61.45;99578.63;2061720;28;20016;-61
2021/07/05 01:41:30;;;;;;;;;;;;;;;22.46;61.28;99581.38;2055075;28;20700;-61
2021/07/05 01:42:30;;;;;;;;;;;;;;;22.45;61.35;99575.03;2060818;28;19913;-61
2021/07/05 01:43:31;;;;;;;;;;;;;;;22.46;61.25;99581.38;2062926;28;19917;-61
2021/07/05 01:44:31;;;;;;;;;;;;;;;22.46;61.58;99570.41;2064675;28;20350;-61
2021/07/05 01:45:33;;;;;;;;;;;;;;;22.46;61.58;99573.16;2062468;28;19918;-61
2021/07/05 01:46:34;;;;;;;;;;;;;;;22.46;61.36;99573.16;2067785;28;19909;-60
2021/07/05 01:47:34;;;;;;;;;;;;;;;22.46;61.36;99576.78;2062670;28;19920;-61
2021/07/05 01:48:34;;;;;;;;;;;;;;;22.46;61.42;99575.88;2063106;28;19913;-60
2021/07/05 01:49:35;;;;;;;;;;;;;;;22.46;61.36;99570.41;2061932;28;19912;-61
2021/07/05 01:50:35;;;;;;;;;;;;;;;22.46;61.37;99578.63;2058761;28;19913;-61
2021/07/05 01:51:36;;;;;;;;;;;;;;;22.45;61.33;99575.03;2058678;28;19909;-61
2021/07/05 01:52:36;;;;;;;;;;;;;;;22.45;61.49;99574.19;2058607;28;19921;-61
2021/07/05 01:53:37;;;;;;;;;;;;;;;22.45;61.35;99575.03;2058250;28;19909;-61
2021/07/05 01:54:37;;;;;;;;;;;;;;;22.45;61.58;99576.94;2059660;28;19913;-61
2021/07/05 01:55:38;;;;;;;;;;;;;;;22.45;61.52;99576.94;2059580;28;20399;-61
2021/07/05 01:56:38;;;;;;;;;;;;;;;22.45;61.41;99579.69;2059435;28;19916;-61
2021/07/05 01:57:39;;;;;;;;;;;;;;;22.45;61.29;99576.94;2063804;28;19909;-61
2021/07/05 01:58:39;;;;;;;;;;;;;;;22.45;61.37;99577.78;2061685;28;20337;-61
2021/07/05 01:59:40;;;;;;;;;;;;;;;22.45;61.44;99582.44;2061578;28;19997;-61
2021/07/05 02:00:45;;;;;;;;;;;;;;;22.46;61.54;99581.38;2062890;28;20724;-61
2021/07/05 02:01:45;;;;;;;;;;;;;;;22.45;61.51;99585.19;2055784;28;20000;-61
2021/07/05 02:02:46;;;;;;;;;;;;;;;22.45;61.50;99575.03;2055917;28;19906;-62
2021/07/05 02:03:46;;;;;;;;;;;;;;;22.45;61.49;99580.53;2063603;28;19910;-62
2021/07/05 02:04:47;;;;;;;;;;;;;;;22.43;61.56;99577.13;2061622;28;19913;-61
2021/07/05 02:05:47;;;;;;;;;;;;;;;22.45;61.33;99574.19;2062337;28;21024;-61
2021/07/05 02:06:48;;;;;;;;;;;;;;;22.44;61.51;99575.22;2061825;28;20288;-62
2021/07/05 02:07:48;;;;;;;;;;;;;;;22.44;61.64;99577.97;2062289;28;20272;-61
2021/07/05 02:08:49;;;;;;;;;;;;;;;22.44;61.59;99570.59;2065755;28;20637;-61
2021/07/05 02:09:49;;;;;;;;;;;;;;;22.44;61.56;99577.97;2067394;28;19925;-61
2021/07/05 02:10:51;;;;;;;;;;;;;;;22.43;61.51;99577.13;2062896;28;19913;-61
2021/07/05 02:11:51;;;;;;;;;;;;;;;22.44;61.54;99575.22;2058055;28;19902;-61
2021/07/05 02:12:53;;;;;;;;;;;;;;;22.45;61.55;99579.69;2068410;28;19971;-62
2021/07/05 02:13:53;;;;;;;;;;;;;;;22.44;61.47;99583.44;2064454;28;19914;-61
2021/07/05 02:14:54;;;;;;;;;;;;;;;22.45;61.58;99579.69;2060755;28;20048;-62
2021/07/05 02:15:55;;;;;;;;;;;;;;;22.44;61.39;99583.44;2050332;28;20139;-61
2021/07/05 02:16:55;;;;;;;;;;;;;;;22.43;61.37;99577.13;2059168;28;20311;-62
2021/07/05 02:17:56;;;;;;;;;;;;;;;22.43;61.49;99581.75;2061620;28;19949;-61
2021/07/05 02:18:56;;;;;;;;;;;;;;;22.44;61.37;99577.97;2061970;28;19913;-61
2021/07/05 02:19:56;;;;;;;;;;;;;;;22.43;61.44;99579.88;2057249;28;19976;-61
2021/07/05 02:20:58;;;;;;;;;;;;;;;22.44;61.44;99577.97;2063316;28;20430;-61
2021/07/05 02:21:59;;;;;;;;;;;;;;;22.44;61.45;99578.84;2061757;28;20055;-61
2021/07/05 02:23:00;;;;;;;;;;;;;;;22.44;61.31;99566.97;2063997;28;20361;-61
2021/07/05 02:24:00;;;;;;;;;;;;;;;22.43;61.28;99582.59;2060923;28;19927;-61
2021/07/05 02:25:02;;;;;;;;;;;;;;;22.44;61.31;99581.59;2062289;28;20514;-62
2021/07/05 02:26:05;;;;;;;;;;;;;;;22.44;61.37;99583.44;2062189;28;20878;-62
2021/07/05 02:27:05;;;;;;;;;;;;;;;22.43;61.42;99577.13;2062876;28;19914;-61
2021/07/05 02:28:10;;;;;;;;;;;;;;;22.43;61.40;99579.00;2062244;28;19960;-62
2021/07/05 02:29:10;;;;;;;;;;;;;;;22.43;61.41;99576.25;2062991;28;19917;-61
2021/07/05 02:30:18;;;;;;;;;;;;;;;22.43;61.31;99570.78;2060786;28;19920;-61
2021/07/05 02:32:59;;;;;;;;;;;;;;;22.43;61.31;99559.78;2055053;28;19913;-61
2021/07/05 02:33:59;;;;;;;;;;;;;;;22.43;61.29;99570.78;2062081;28;20352;-62
2021/07/05 02:35:00;;;;;;;;;;;;;;;22.43;61.44;99563.38;2060904;28;19913;-62
2021/07/05 02:36:01;;;;;;;;;;;;;;;22.43;61.30;99565.28;2061124;28;19964;-61
2021/07/05 02:37:01;;;;;;;;;;;;;;;22.42;61.36;99564.44;2062498;28;19913;-61
2021/07/05 02:38:03;;;;;;;;;;;;;;;22.43;61.53;99565.28;2058594;28;19918;-61
2021/07/05 02:39:04;;;;;;;;;;;;;;;22.43;61.31;99562.53;2056839;28;19909;-61
2021/07/05 02:40:06;;;;;;;;;;;;;;;22.44;61.40;99561.47;2060733;28;19952;-61
2021/07/05 02:41:06;;;;;;;;;;;;;;;22.44;61.40;99561.47;2056588;28;20365;-62
2021/07/05 02:42:07;;;;;;;;;;;;;;;22.43;61.43;99565.28;2054713;28;20337;-61
2021/07/05 02:43:07;;;;;;;;;;;;;;;22.44;61.26;99567.84;2053307;28;20456;-61
2021/07/05 02:44:07;;;;;;;;;;;;;;;22.43;61.39;99557.03;2063375;28;19983;-61
2021/07/05 02:45:09;;;;;;;;;;;;;;;22.44;61.32;99566.97;2061387;28;19909;-62
2021/07/05 02:46:09;;;;;;;;;;;;;;;22.43;61.41;99565.28;2062115;28;19929;-61
2021/07/05 02:47:10;;;;;;;;;;;;;;;22.42;61.39;99563.59;2062492;28;20028;-61
2021/07/05 02:48:12;;;;;;;;;;;;;;;22.42;61.42;99563.59;2062275;28;20823;-61
2021/07/05 02:50:51;;;;;;;;;;;;;;;22.42;61.48;99566.34;2057700;28;19901;-61
2021/07/05 02:51:52;;;;;;;;;;;;;;;22.44;61.28;99561.47;2063565;28;20364;-61
2021/07/05 02:52:52;;;;;;;;;;;;;;;22.42;61.41;99564.44;2061972;28;20277;-61
2021/07/05 02:53:52;;;;;;;;;;;;;;;22.43;61.09;99568.03;2063027;28;20309;-62
2021/07/05 02:54:53;;;;;;;;;;;;;;;22.42;61.22;99558.09;2061576;28;19917;-61
2021/07/05 02:57:31;;;;;;;;;;;;;;;22.42;61.23;99558.09;2054824;28;20127;-60
2021/07/05 02:58:32;;;;;;;;;;;;;;;22.42;61.31;99556.19;2062504;28;19913;-60
2021/07/05 02:59:32;;;;;;;;;;;;;;;22.42;61.29;99563.59;2061951;28;19964;-60
2021/07/05 03:00:33;;;;;;;;;;;;;;;22.42;61.16;99563.59;2070873;28;19913;-60
2021/07/05 03:01:34;;;;;;;;;;;;;;;22.42;61.21;99569.94;2054931;28;19901;-60
2021/07/05 03:02:34;;;;;;;;;;;;;;;22.42;61.14;99560.84;2055807;28;20350;-61
2021/07/05 03:03:35;;;;;;;;;;;;;;;22.43;61.12;99559.78;2062859;28;21115;-60
2021/07/05 03:04:35;;;;;;;;;;;;;;;22.43;61.36;99555.16;2057486;28;19917;-60
2021/07/05 03:05:35;;;;;;;;;;;;;;;22.43;61.12;99554.28;2059595;28;19987;-60
2021/07/05 03:06:36;;;;;;;;;;;;;;;22.42;61.30;99549.84;2064137;28;19928;-60
2021/07/05 03:07:36;;;;;;;;;;;;;;;22.42;61.18;99547.13;2061636;28;20288;-60
2021/07/05 03:08:36;;;;;;;;;;;;;;;22.41;61.15;99545.38;2053325;28;19997;-60
2021/07/05 03:09:37;;;;;;;;;;;;;;;22.43;61.28;99543.31;2054779;28;20419;-60
2021/07/05 03:10:38;;;;;;;;;;;;;;;22.42;61.24;99550.72;2063945;28;19913;-61
2021/07/05 03:11:38;;;;;;;;;;;;;;;22.41;61.17;99550.88;2062184;28;20292;-60
2021/07/05 03:12:39;;;;;;;;;;;;;;;22.41;61.27;99543.47;2064008;28;20004;-60
2021/07/05 03:13:39;;;;;;;;;;;;;;;22.42;61.10;99536.97;2056003;28;20801;-60
2021/07/05 03:14:39;;;;;;;;;;;;;;;22.42;61.13;99541.63;2065490;28;19905;-60
2021/07/05 03:15:40;;;;;;;;;;;;;;;22.41;61.08;99539.91;2062105;28;19919;-61
2021/07/05 03:16:41;;;;;;;;;;;;;;;22.42;61.22;99547.13;2063548;28;19920;-60
2021/07/05 03:17:42;;;;;;;;;;;;;;;22.41;61.15;99539.91;2063738;28;20550;-60
2021/07/05 03:18:42;;;;;;;;;;;;;;;22.41;61.11;99539.91;2062599;28;20372;-60
2021/07/05 03:19:44;;;;;;;;;;;;;;;22.41;61.11;99546.22;2068510;28;19999;-60
2021/07/05 03:20:46;;;;;;;;;;;;;;;22.41;61.15;99540.75;2063787;28;19914;-60
2021/07/05 03:22:18;;;;;;;;;;;;;;;22.42;61.08;99544.38;2063841;28;19976;-60
2021/07/05 03:23:19;;;;;;;;;;;;;;;22.41;61.14;99543.47;2059292;28;19917;-60
2021/07/05 03:24:19;;;;;;;;;;;;;;;22.41;61.29;99546.22;2062421;28;19940;-60
2021/07/05 03:25:21;;;;;;;;;;;;;;;22.42;60.99;99552.59;2059317;28;19928;-62
2021/07/05 03:26:21;;;;;;;;;;;;;;;22.41;61.26;99550.88;2063059;28;19936;-60
2021/07/05 03:27:25;;;;;;;;;;;;;;;22.41;61.13;99545.38;2063271;28;19909;-61
2021/07/05 03:28:25;;;;;;;;;;;;;;;22.41;61.14;99551.72;2063578;28;19917;-61
2021/07/05 03:29:26;;;;;;;;;;;;;;;22.40;61.03;99549.19;2063060;28;20350;-61
2021/07/05 03:30:27;;;;;;;;;;;;;;;22.40;61.23;99549.19;2063863;28;19913;-61
2021/07/05 03:31:27;;;;;;;;;;;;;;;22.40;61.35;99551.94;2062107;28;19992;-61
2021/07/05 03:32:27;;;;;;;;;;;;;;;22.40;61.25;99549.19;2059856;28;19957;-60
2021/07/05 03:33:28;;;;;;;;;;;;;;;22.40;61.08;99550.03;2059396;28;20317;-61
2021/07/05 03:34:28;;;;;;;;;;;;;;;22.40;61.28;99560.16;2062954;28;19948;-61
2021/07/05 03:35:29;;;;;;;;;;;;;;;22.40;61.18;99560.16;2064500;28;20039;-61
2021/07/05 03:36:29;;;;;;;;;;;;;;;22.39;61.24;99559.31;2061897;28;19920;-61
2021/07/05 03:37:29;;;;;;;;;;;;;;;22.39;61.18;99551.09;2058243;28;20123;-61
2021/07/05 03:38:29;;;;;;;;;;;;;;;22.39;61.31;99559.31;2059992;28;19913;-62
2021/07/05 03:39:30;;;;;;;;;;;;;;;22.39;61.21;99547.47;2063689;28;19905;-61
2021/07/05 03:40:31;;;;;;;;;;;;;;;22.40;61.03;99555.53;2063856;28;19918;-61
2021/07/05 03:41:44;;;;;;;;;;;;;;;22.39;61.23;99545.59;2061603;28;19913;-61
2021/07/05 03:42:44;;;;;;;;;;;;;;;22.40;61.00;99555.53;2061241;28;20576;-61
2021/07/05 03:43:46;;;;;;;;;;;;;;;22.40;61.17;99560.16;2057183;28;19951;-60
2021/07/05 03:44:46;;;;;;;;;;;;;;;22.40;60.99;99551.94;2059433;28;19920;-61
2021/07/05 03:45:47;;;;;;;;;;;;;;;22.40;61.04;99558.28;2061638;28;19944;-60
2021/07/05 03:46:47;;;;;;;;;;;;;;;22.40;61.04;99554.69;2063937;28;19917;-60
2021/07/05 03:47:47;;;;;;;;;;;;;;;22.39;60.97;99559.31;2063572;28;19909;-61
2021/07/05 03:48:49;;;;;;;;;;;;;;;22.40;61.15;99552.78;2063301;28;19949;-61
2021/07/05 03:49:49;;;;;;;;;;;;;;;22.39;61.20;99553.84;2058924;28;19913;-61
2021/07/05 03:50:49;;;;;;;;;;;;;;;22.39;61.19;99552.94;2063689;28;19909;-61
2021/07/05 03:51:50;;;;;;;;;;;;;;;22.39;61.19;99552.94;2063864;28;19952;-61
2021/07/05 03:52:50;;;;;;;;;;;;;;;22.39;61.04;99555.69;2061261;28;19914;-61
2021/07/05 03:55:29;;;;;;;;;;;;;;;22.40;61.00;99543.69;2060722;28;19913;-61
2021/07/05 03:56:30;;;;;;;;;;;;;;;22.39;61.17;99548.34;2066667;28;20554;-61
2021/07/05 03:57:30;;;;;;;;;;;;;;;22.40;61.26;99543.69;2063897;28;19957;-61
2021/07/05 03:58:41;;;;;;;;;;;;;;;22.40;61.16;99549.19;2058578;28;20434;-60
2021/07/05 03:59:41;;;;;;;;;;;;;;;22.40;61.16;99554.69;2059887;28;19913;-61
2021/07/05 04:00:42;;;;;;;;;;;;;;;22.40;61.04;99554.69;2060890;28;19909;-61
2021/07/05 04:01:42;;;;;;;;;;;;;;;22.40;61.19;99549.19;2061988;28;19917;-61
2021/07/05 04:02:42;;;;;;;;;;;;;;;22.39;60.88;99555.69;2063659;28;19905;-60
2021/07/05 04:03:43;;;;;;;;;;;;;;;22.38;60.92;99552.09;2060642;28;20736;-61
2021/07/05 04:04:44;;;;;;;;;;;;;;;22.39;61.18;99551.09;2060548;28;19956;-61
2021/07/05 04:05:45;;;;;;;;;;;;;;;22.39;61.12;99552.94;2061546;28;20489;-61
2021/07/05 04:06:45;;;;;;;;;;;;;;;22.39;61.00;99547.47;2061356;28;20015;-61
2021/07/05 04:07:49;;;;;;;;;;;;;;;22.40;60.91;99549.19;2053056;28;19921;-61
2021/07/05 04:09:00;;;;;;;;;;;;;;;22.39;61.10;99545.59;2054451;28;19909;-61
2021/07/05 04:10:25;;;;;;;;;;;;;;;22.38;61.12;99543.03;2056855;28;20725;-61
2021/07/05 04:11:25;;;;;;;;;;;;;;;22.39;61.00;99547.47;2059693;28;20677;-60
2021/07/05 04:12:25;;;;;;;;;;;;;;;22.38;61.15;99541.13;2054983;28;20368;-60
2021/07/05 04:13:28;;;;;;;;;;;;;;;22.39;61.07;99544.72;2050474;28;19949;-61
2021/07/05 04:14:28;;;;;;;;;;;;;;;22.38;60.93;99548.50;2055606;28;19940;-60
2021/07/05 04:15:28;;;;;;;;;;;;;;;22.38;61.12;99548.50;2053178;28;20531;-61
2021/07/05 04:16:29;;;;;;;;;;;;;;;22.37;61.15;99544.06;2061664;28;19925;-61
2021/07/05 04:17:29;;;;;;;;;;;;;;;22.38;61.06;99543.03;2055872;28;19913;-61
2021/07/05 04:18:29;;;;;;;;;;;;;;;22.38;61.12;99548.50;2056041;28;20388;-61
2021/07/05 04:19:29;;;;;;;;;;;;;;;22.39;61.07;99541.97;2058874;28;19920;-61
2021/07/05 04:20:30;;;;;;;;;;;;;;;22.38;60.95;99545.75;2058225;28;19913;-61
2021/07/05 04:21:30;;;;;;;;;;;;;;;22.39;61.08;99539.22;2056235;28;19997;-61
2021/07/05 04:22:30;;;;;;;;;;;;;;;22.38;60.80;99545.75;2055476;28;19914;-61
2021/07/05 04:23:31;;;;;;;;;;;;;;;22.39;61.10;99541.97;2063544;28;19917;-61
2021/07/05 04:24:31;;;;;;;;;;;;;;;22.38;60.86;99543.03;2052507;28;19920;-61
2021/07/05 04:25:56;;;;;;;;;;;;;;;22.38;61.00;99545.75;2056164;28;20271;-60
2021/07/05 04:26:57;;;;;;;;;;;;;;;22.38;61.06;99548.50;2046293;28;19917;-61
2021/07/05 04:27:58;;;;;;;;;;;;;;;22.37;61.19;99544.06;2049340;28;19914;-61
2021/07/05 04:28:58;;;;;;;;;;;;;;;22.38;61.05;99540.28;2056842;28;19909;-61
2021/07/05 04:29:59;;;;;;;;;;;;;;;22.38;61.05;99545.75;2058693;28;19946;-61
2021/07/05 04:30:59;;;;;;;;;;;;;;;22.37;61.05;99544.06;2050544;28;20370;-60
2021/07/05 04:31:59;;;;;;;;;;;;;;;22.36;61.10;99543.19;2054609;28;20983;-61
2021/07/05 04:33:00;;;;;;;;;;;;;;;22.38;60.92;99545.75;2049807;28;20356;-61
2021/07/05 04:34:00;;;;;;;;;;;;;;;22.38;61.06;99548.50;2050363;28;20400;-61
2021/07/05 04:35:00;;;;;;;;;;;;;;;22.37;60.97;99541.31;2052435;28;19950;-61
2021/07/05 04:36:00;;;;;;;;;;;;;;;22.37;61.12;99546.81;2048992;28;19914;-61
2021/07/05 04:37:01;;;;;;;;;;;;;;;22.38;61.06;99551.25;2052026;28;19912;-61
2021/07/05 04:38:02;;;;;;;;;;;;;;;22.37;61.05;99550.41;2042882;28;19921;-61
2021/07/05 04:39:06;;;;;;;;;;;;;;;22.38;60.93;99551.25;2054925;28;20719;-60
2021/07/05 04:40:08;;;;;;;;;;;;;;;22.38;60.89;99551.25;2053139;28;19909;-61
2021/07/05 04:41:08;;;;;;;;;;;;;;;22.38;60.75;99557.59;2049734;28;19925;-61
2021/07/05 04:42:09;;;;;;;;;;;;;;;22.38;60.97;99554.00;2059635;28;19913;-61
2021/07/05 04:43:10;;;;;;;;;;;;;;;22.37;60.88;99557.78;2045377;28;20689;-61
2021/07/05 04:44:13;;;;;;;;;;;;;;;22.38;61.00;99556.75;2042835;28;19921;-61
2021/07/05 04:45:14;;;;;;;;;;;;;;;22.38;60.82;99562.25;2057772;28;19910;-61
2021/07/05 04:46:16;;;;;;;;;;;;;;;22.38;61.00;99556.75;2048055;28;20321;-61
2021/07/05 04:47:17;;;;;;;;;;;;;;;22.37;61.05;99566.03;2053062;28;19913;-61
2021/07/05 04:48:17;;;;;;;;;;;;;;;22.38;61.06;99562.25;2051909;28;19972;-61
2021/07/05 04:49:18;;;;;;;;;;;;;;;22.38;60.98;99564.97;2054935;28;19997;-61
2021/07/05 04:50:19;;;;;;;;;;;;;;;22.37;60.96;99566.03;2054652;28;19980;-61
2021/07/05 04:51:20;;;;;;;;;;;;;;;22.38;60.86;99562.25;2050184;28;19917;-61
2021/07/05 04:52:20;;;;;;;;;;;;;;;22.37;60.89;99566.03;2044516;28;20377;-61
2021/07/05 04:53:22;;;;;;;;;;;;;;;22.35;60.93;99560.72;2044273;28;20304;-61
2021/07/05 04:54:23;;;;;;;;;;;;;;;22.36;60.90;99570.66;2057220;28;20297;-61
2021/07/05 04:55:27;;;;;;;;;;;;;;;22.37;60.91;99566.03;2057554;28;19914;-61
2021/07/05 04:56:27;;;;;;;;;;;;;;;22.36;61.05;99564.31;2049428;28;20358;-61
2021/07/05 04:57:41;;;;;;;;;;;;;;;22.36;61.02;99569.81;2052692;28;19922;-61
2021/07/05 04:58:41;;;;;;;;;;;;;;;22.36;61.03;99564.31;2055168;28;19921;-61
2021/07/05 04:59:41;;;;;;;;;;;;;;;22.37;60.85;99566.03;2046387;28;19914;-61
2021/07/05 05:00:42;;;;;;;;;;;;;;;22.37;60.82;99560.53;2055792;28;19933;-60
2021/07/05 05:01:44;;;;;;;;;;;;;;;22.35;60.82;99557.97;2053455;28;19913;-61
2021/07/05 05:02:45;;;;;;;;;;;;;;;22.37;60.75;99566.03;2055087;28;20126;-61
2021/07/05 05:03:45;;;;;;;;;;;;;;;22.35;60.76;99563.47;2053657;28;19918;-61
2021/07/05 05:04:45;;;;;;;;;;;;;;;22.35;60.99;99562.63;2054189;28;20137;-61
2021/07/05 05:07:24;;;;;;;;;;;;;;;22.34;60.99;99560.88;2051780;28;19917;-61
2021/07/05 05:08:24;;;;;;;;;;;;;;;22.34;61.02;99560.88;2054284;28;19906;-61
2021/07/05 05:09:24;;;;;;;;;;;;;;;22.35;60.88;99562.63;2048149;28;20526;-61
2021/07/05 05:10:25;;;;;;;;;;;;;;;22.35;60.99;99568.09;2055899;28;19917;-61
2021/07/05 05:11:25;;;;;;;;;;;;;;;22.34;60.97;99572.75;2062985;28;19925;-61
2021/07/05 05:12:26;;;;;;;;;;;;;;;22.34;60.85;99572.75;2061688;28;20556;-60
2021/07/05 05:13:38;;;;;;;;;;;;;;;22.35;60.76;99576.34;2061976;28;19913;-61
2021/07/05 05:14:38;;;;;;;;;;;;;;;22.36;60.91;99572.56;2069098;28;19967;-61
2021/07/05 05:15:38;;;;;;;;;;;;;;;22.37;60.75;99571.53;2052526;28;20060;-61
2021/07/05 05:16:39;;;;;;;;;;;;;;;22.36;60.62;99569.81;2058578;28;19909;-61
2021/07/05 05:17:40;;;;;;;;;;;;;;;22.35;60.76;99568.94;2062929;28;19909;-61
2021/07/05 05:18:41;;;;;;;;;;;;;;;22.35;60.88;99568.94;2047695;28;19909;-61
2021/07/05 05:19:41;;;;;;;;;;;;;;;22.35;60.88;99573.59;2051627;28;19914;-62
2021/07/05 05:20:41;;;;;;;;;;;;;;;22.35;60.84;99577.19;2062862;28;19956;-61
2021/07/05 05:21:42;;;;;;;;;;;;;;;22.36;60.71;99575.28;2062836;28;19909;-61
2021/07/05 05:22:42;;;;;;;;;;;;;;;22.37;60.71;99582.50;2063305;28;19921;-61
2021/07/05 05:23:43;;;;;;;;;;;;;;;22.37;60.91;99577.03;2061642;28;19967;-61
2021/07/05 05:24:43;;;;;;;;;;;;;;;22.38;60.75;99576.81;2063312;28;19910;-61
2021/07/05 05:25:44;;;;;;;;;;;;;;;22.37;60.73;99577.03;2062974;28;19913;-61
2021/07/05 05:26:44;;;;;;;;;;;;;;;22.37;60.77;99571.53;2062417;28;19917;-61